Time;durP1;ratioP1;P1;durP2;ratioP2;P2;SDS_P1;SDS_P2;PMS_P1;PMS_P2;Temp;Humidity;BMP_temperature;BMP_pressure;BME280_temperature;BME280_humidity;BME280_pressure;Samples;Min_cycle;Max_cycle;Signal;HPM_P1;HPM_P2
2023/08/31 00:01:03;;;;;;;6.15;4.82;;;13.50;99.90;;;;;;10173265;29;20302;-89
2023/08/31 00:06:08;;;;;;;8.50;6.05;;;13.50;99.90;;;;;;10174688;29;20238;-89
2023/08/31 00:11:10;;;;;;;5.95;5.13;;;13.50;99.90;;;;;;10173525;29;20270;-89
2023/08/31 00:16:13;;;;;;;7.43;5.80;;;13.50;99.90;;;;;;10175216;29;20291;-89
2023/08/31 00:21:16;;;;;;;11.00;6.05;;;13.50;99.90;;;;;;10175342;29;20235;-89
2023/08/31 00:26:18;;;;;;;9.23;5.70;;;13.50;99.90;;;;;;10174849;29;20294;-89
2023/08/31 00:31:23;;;;;;;8.00;6.30;;;13.60;99.90;;;;;;10156268;29;20255;-89
2023/08/31 00:36:26;;;;;;;8.05;5.45;;;13.60;99.90;;;;;;10159135;29;20255;-89
2023/08/31 00:41:29;;;;;;;7.28;6.50;;;13.50;99.90;;;;;;10118287;29;20688;-89
2023/08/31 00:46:32;;;;;;;7.78;5.40;;;13.50;99.90;;;;;;10119090;29;20744;-89
2023/08/31 00:51:36;;;;;;;6.75;5.82;;;13.50;99.90;;;;;;10118171;29;20216;-89
2023/08/31 00:56:39;;;;;;;7.28;5.50;;;13.50;99.90;;;;;;10117697;29;20271;-89
2023/08/31 01:01:57;;;;;;;7.95;5.97;;;13.50;99.90;;;;;;10135151;29;20299;-90
2023/08/31 01:07:08;;;;;;;6.25;5.70;;;13.40;99.90;;;;;;10142951;29;20695;-90
2023/08/31 01:12:30;;;;;;;9.35;6.32;;;13.40;99.90;;;;;;10144026;29;20236;-90
2023/08/31 01:17:38;;;;;;;5.68;5.10;;;13.40;99.90;;;;;;10134285;29;20323;-90
2023/08/31 01:22:47;;;;;;;7.32;6.63;;;13.30;99.90;;;;;;10133872;29;20303;-90
2023/08/31 01:27:51;;;;;;;6.97;6.05;;;13.40;99.90;;;;;;10149527;29;20335;-90
2023/08/31 01:32:54;;;;;;;7.82;6.68;;;13.40;99.90;;;;;;10147501;29;20248;-89
2023/08/31 01:38:02;;;;;;;7.63;6.05;;;13.30;99.90;;;;;;10115503;29;20267;-90
2023/08/31 01:43:07;;;;;;;10.65;7.20;;;13.30;99.90;;;;;;10147194;29;20244;-90
2023/08/31 01:48:10;;;;;;;8.27;6.68;;;13.20;99.90;;;;;;10130737;29;20243;-89
2023/08/31 01:53:12;;;;;;;9.03;6.90;;;13.10;99.90;;;;;;10116006;29;20288;-90
2023/08/31 01:58:17;;;;;;;7.65;6.57;;;12.90;99.90;;;;;;10114764;29;20310;-89
2023/08/31 02:03:19;;;;;;;8.37;6.13;;;12.80;99.90;;;;;;10118325;29;20699;-89
2023/08/31 02:08:22;;;;;;;8.48;6.60;;;12.70;99.90;;;;;;10137014;29;20290;-90
2023/08/31 02:13:28;;;;;;;7.85;6.45;;;12.70;99.90;;;;;;10131535;29;20236;-89
2023/08/31 02:18:30;;;;;;;7.53;6.10;;;12.70;99.90;;;;;;10114410;29;20255;-90
2023/08/31 02:23:33;;;;;;;7.07;6.22;;;12.60;99.90;;;;;;10126268;29;20286;-89
2023/08/31 02:28:37;;;;;;;8.83;7.30;;;12.60;99.90;;;;;;10128653;29;20299;-90
2023/08/31 02:33:39;;;;;;;14.57;8.17;;;12.60;99.90;;;;;;10131027;29;20884;-90
2023/08/31 02:38:42;;;;;;;8.55;7.63;;;12.50;99.90;;;;;;10098698;29;20263;-90
2023/08/31 02:43:44;;;;;;;9.23;7.97;;;12.60;99.90;;;;;;10112949;29;20240;-90
2023/08/31 02:48:47;;;;;;;9.38;7.50;;;12.60;99.90;;;;;;10130717;29;20235;-90
2023/08/31 02:53:50;;;;;;;11.30;8.20;;;12.60;99.90;;;;;;10144691;29;20283;-89
2023/08/31 02:58:52;;;;;;;14.53;9.60;;;12.50;99.90;;;;;;10111544;29;20255;-89
2023/08/31 03:03:55;;;;;;;10.10;9.10;;;12.50;99.90;;;;;;10130457;29;20300;-89
2023/08/31 03:08:58;;;;;;;8.63;7.72;;;12.40;99.90;;;;;;10112566;29;20244;-90
2023/08/31 03:14:01;;;;;;;10.90;8.20;;;;;;;;;;10143978;29;20315;-89
2023/08/31 03:19:04;;;;;;;8.00;7.20;;;12.20;99.90;;;;;;10113024;29;20270;-90
2023/08/31 03:24:06;;;;;;;10.77;8.27;;;12.00;99.90;;;;;;10119280;29;20668;-89
2023/08/31 03:29:09;;;;;;;9.23;8.18;;;12.00;99.90;;;;;;10129200;29;20235;-89
2023/08/31 03:34:12;;;;;;;9.40;8.40;;;12.00;99.90;;;;;;10110961;29;20299;-90
2023/08/31 03:39:14;;;;;;;10.73;8.43;;;12.00;99.90;;;;;;10114491;29;20259;-90
2023/08/31 03:44:17;;;;;;;9.10;8.17;;;12.00;99.90;;;;;;10112481;29;20251;-89
2023/08/31 03:49:20;;;;;;;10.33;8.20;;;12.00;99.90;;;;;;10128940;29;20405;-89
2023/08/31 03:54:22;;;;;;;11.00;8.40;;;12.00;99.90;;;;;;10111431;29;20705;-89
2023/08/31 03:59:26;;;;;;;11.83;8.77;;;12.00;99.90;;;;;;10111309;29;20806;-90
2023/08/31 04:04:29;;;;;;;10.77;8.60;;;11.90;99.90;;;;;;10111715;29;20235;-90
2023/08/31 04:09:31;;;;;;;11.63;8.30;;;11.90;99.90;;;;;;10164653;29;20248;-89
2023/08/31 04:14:34;;;;;;;13.43;8.45;;;11.90;99.90;;;;;;10150633;29;20251;-88
2023/08/31 04:19:37;;;;;;;10.55;8.48;;;11.90;99.90;;;;;;10111126;29;20267;-89
2023/08/31 04:24:40;;;;;;;12.73;8.68;;;11.90;99.90;;;;;;10140062;29;20981;-89
2023/08/31 04:29:42;;;;;;;11.23;9.47;;;11.90;99.90;;;;;;10126629;29;20303;-89
2023/08/31 04:34:45;;;;;;;14.52;9.05;;;12.00;99.90;;;;;;10109481;29;20243;-88
2023/08/31 04:39:48;;;;;;;11.13;9.30;;;12.00;99.90;;;;;;10110738;29;20252;-90
2023/08/31 04:44:50;;;;;;;10.63;9.53;;;12.00;99.90;;;;;;10128305;29;20235;-90
2023/08/31 04:49:53;;;;;;;12.90;9.68;;;12.20;99.90;;;;;;10133549;29;20303;-90
2023/08/31 04:54:55;;;;;;;11.88;9.75;;;12.20;99.90;;;;;;10134077;29;20244;-89
2023/08/31 04:59:58;;;;;;;12.83;9.60;;;12.20;99.90;;;;;;10139551;29;20342;-88
2023/08/31 05:05:00;;;;;;;14.33;9.67;;;12.30;99.90;;;;;;10133061;29;20287;-88
2023/08/31 05:10:03;;;;;;;14.43;9.77;;;12.30;99.90;;;;;;10133254;29;20701;-89
2023/08/31 05:15:06;;;;;;;15.90;11.53;;;12.40;99.90;;;;;;10132572;29;20260;-89
2023/08/31 05:20:09;;;;;;;13.07;9.43;;;12.40;99.90;;;;;;10127786;29;20268;-88
2023/08/31 05:25:12;;;;;;;16.92;8.38;;;12.50;99.90;;;;;;10125418;29;20628;-88
2023/08/31 05:30:15;;;;;;;12.73;9.90;;;12.80;99.90;;;;;;10133084;29;20276;-88
2023/08/31 05:35:17;;;;;;;14.70;10.80;;;12.90;99.90;;;;;;10114886;29;20291;-88
2023/08/31 05:40:21;;;;;;;13.02;11.07;;;13.00;99.90;;;;;;10132778;29;20260;-88
2023/08/31 05:45:24;;;;;;;15.52;11.63;;;13.20;99.90;;;;;;10131168;29;20287;-88
2023/08/31 05:50:27;;;;;;;13.18;10.75;;;13.40;99.90;;;;;;10132542;29;20307;-88
2023/08/31 05:55:30;;;;;;;13.73;11.18;;;13.60;99.90;;;;;;10130592;29;20323;-88
2023/08/31 06:00:32;;;;;;;12.38;10.82;;;13.80;99.90;;;;;;10131672;29;20256;-88
2023/08/31 06:05:35;;;;;;;14.93;11.38;;;14.00;99.90;;;;;;10131496;29;20240;-88
2023/08/31 06:10:38;;;;;;;13.38;11.18;;;14.20;99.90;;;;;;10132149;29;20260;-88
2023/08/31 06:15:40;;;;;;;12.75;10.23;;;14.40;99.90;;;;;;10131027;29;20244;-88
2023/08/31 06:20:43;;;;;;;11.35;9.88;;;14.50;99.90;;;;;;10130695;29;20673;-88
2023/08/31 06:25:48;;;;;;;15.70;10.15;;;14.70;99.90;;;;;;10130321;29;20284;-88
2023/08/31 06:30:51;;;;;;;14.57;9.77;;;14.70;99.90;;;;;;10097534;29;20248;-89
2023/08/31 06:35:53;;;;;;;9.90;8.90;;;14.90;99.90;;;;;;10123286;29;20239;-87
2023/08/31 06:40:58;;;;;;;8.93;7.97;;;15.10;99.90;;;;;;10127027;29;20259;-88
2023/08/31 06:46:01;;;;;;;9.38;8.40;;;15.30;99.90;;;;;;10126465;29;20906;-87
2023/08/31 06:51:24;;;;;;;8.57;7.65;;;15.50;99.90;;;;;;10128923;29;20633;-87
2023/08/31 06:56:27;;;;;;;10.07;8.48;;;15.70;99.90;;;;;;10128068;29;20260;-87
2023/08/31 07:01:30;;;;;;;10.65;9.45;;;15.80;99.90;;;;;;10126594;29;20307;-88
2023/08/31 07:06:35;;;;;;;8.40;7.60;;;16.00;99.90;;;;;;10130415;29;20279;-88
2023/08/31 07:11:37;;;;;;;9.38;7.05;;;16.10;99.90;;;;;;10128297;29;20307;-88
2023/08/31 07:16:40;;;;;;;10.20;7.95;;;16.60;99.90;;;;;;10129620;29;20272;-89
2023/08/31 07:21:42;;;;;;;9.32;8.27;;;17.00;99.90;;;;;;10129384;29;20327;-89
2023/08/31 07:26:45;;;;;;;8.43;7.40;;;17.00;99.90;;;;;;10126915;29;20755;-88
2023/08/31 07:31:48;;;;;;;12.35;10.40;;;17.20;99.90;;;;;;10124460;29;20239;-88
2023/08/31 07:36:50;;;;;;;7.53;6.80;;;17.40;99.90;;;;;;10126873;29;20232;-89
2023/08/31 07:41:54;;;;;;;13.50;9.60;;;17.60;99.90;;;;;;10126849;29;20260;-88
2023/08/31 07:46:57;;;;;;;10.38;8.43;;;17.60;99.90;;;;;;10125261;29;20965;-87
2023/08/31 07:51:59;;;;;;;7.13;6.50;;;17.60;99.90;;;;;;10125096;29;20695;-87
2023/08/31 07:57:02;;;;;;;6.78;6.05;;;17.60;99.90;;;;;;10127079;29;20263;-87
2023/08/31 08:02:06;;;;;;;7.38;6.70;;;17.90;99.90;;;;;;10126842;29;20632;-87
2023/08/31 08:07:08;;;;;;;6.10;5.50;;;17.90;99.90;;;;;;10127168;29;20248;-87
2023/08/31 08:12:11;;;;;;;6.93;5.88;;;18.20;99.90;;;;;;10126869;29;20267;-87
2023/08/31 08:17:13;;;;;;;6.03;5.53;;;18.40;99.90;;;;;;10126954;29;20236;-88
2023/08/31 08:22:16;;;;;;;7.03;6.15;;;18.40;99.90;;;;;;10131351;29;20279;-88
2023/08/31 08:27:18;;;;;;;6.60;6.00;;;18.60;99.90;;;;;;10132784;29;20311;-88
2023/08/31 08:32:22;;;;;;;6.40;5.90;;;18.50;99.90;;;;;;10132880;29;20240;-88
2023/08/31 08:37:25;;;;;;;6.18;5.60;;;18.60;99.90;;;;;;10134162;29;20264;-88
2023/08/31 08:42:31;;;;;;;5.88;5.38;;;18.60;99.90;;;;;;10134229;29;20663;-88
2023/08/31 08:47:34;;;;;;;6.10;5.60;;;18.30;99.90;;;;;;10133356;29;20228;-88
2023/08/31 08:52:39;;;;;;;5.65;5.15;;;17.60;99.90;;;;;;10132005;29;20240;-88
2023/08/31 08:57:41;;;;;;;4.30;4.00;;;17.50;99.90;;;;;;10132064;29;20732;-88
2023/08/31 09:02:45;;;;;;;5.65;5.15;;;17.60;99.90;;;;;;10122741;29;20288;-88
2023/08/31 09:08:10;;;;;;;5.68;5.05;;;17.50;99.90;;;;;;10133288;29;20731;-88
2023/08/31 09:13:17;;;;;;;6.15;5.55;;;17.80;99.90;;;;;;10131937;29;20285;-88
2023/08/31 09:18:34;;;;;;;6.20;5.60;;;17.70;99.90;;;;;;10131339;29;20333;-88
2023/08/31 09:23:37;;;;;;;5.53;5.13;;;17.60;99.90;;;;;;10131443;29;20644;-88
2023/08/31 09:28:41;;;;;;;9.75;5.68;;;17.60;99.90;;;;;;10130499;29;20703;-88
2023/08/31 09:33:51;;;;;;;9.20;5.00;;;17.60;99.90;;;;;;10130895;29;20279;-88
2023/08/31 09:38:58;;;;;;;4.65;4.25;;;17.80;99.90;;;;;;10131163;29;20294;-88
2023/08/31 09:44:17;;;;;;;3.60;3.30;;;17.70;99.90;;;;;;10132171;29;20244;-88
2023/08/31 09:49:21;;;;;;;5.05;4.55;;;17.50;99.90;;;;;;10129674;29;20304;-88
2023/08/31 09:54:26;;;;;;;5.85;5.32;;;17.60;99.90;;;;;;10131226;29;20272;-88
2023/08/31 09:59:29;;;;;;;6.85;6.22;;;17.90;99.90;;;;;;10128121;29;20799;-88
2023/08/31 10:04:34;;;;;;;4.72;4.00;;;18.10;99.90;;;;;;10123306;29;20701;-88
2023/08/31 10:09:37;;;;;;;4.95;3.47;;;18.10;99.90;;;;;;10102966;29;20264;-88
2023/08/31 10:14:40;;;;;;;6.05;5.45;;;18.30;99.90;;;;;;10126454;29;20792;-88
2023/08/31 10:19:43;;;;;;;5.55;5.05;;;18.60;99.90;;;;;;10105324;29;20647;-88
2023/08/31 10:25:03;;;;;;;3.33;3.03;;;18.70;99.90;;;;;;10110502;29;20232;-88
2023/08/31 10:30:28;;;;;;;4.35;3.92;;;18.90;99.90;;;;;;10111966;29;20303;-88
2023/08/31 10:36:00;;;;;;;4.80;3.40;;;18.70;99.60;;;;;;10096645;29;20623;-88
2023/08/31 10:41:20;;;;;;;6.20;3.22;;;18.40;99.40;;;;;;10085443;29;20885;-88
2023/08/31 10:46:31;;;;;;;7.78;4.13;;;18.20;99.30;;;;;;10112654;29;20711;-88
2023/08/31 10:51:34;;;;;;;5.00;4.60;;;18.10;99.90;;;;;;10128191;29;20243;-88
2023/08/31 10:56:53;;;;;;;5.75;5.07;;;18.30;99.90;;;;;;10124840;29;20327;-88
2023/08/31 11:02:02;;;;;;;5.68;5.10;;;18.40;99.90;;;;;;10126403;29;20259;-88
2023/08/31 11:07:26;;;;;;;5.78;5.25;;;18.60;99.90;;;;;;10125583;29;20299;-88
2023/08/31 11:12:31;;;;;;;4.05;3.65;;;18.90;99.20;;;;;;10089855;29;20768;-88
2023/08/31 11:17:34;;;;;;;5.05;3.88;;;18.90;96.90;;;;;;10110508;29;20713;-89
2023/08/31 11:22:45;;;;;;;4.25;3.85;;;19.00;95.90;;;;;;10127096;29;20267;-88
2023/08/31 11:27:58;;;;;;;7.00;4.97;;;19.40;95.30;;;;;;10127702;29;20240;-87
2023/08/31 11:33:06;;;;;;;5.50;3.88;;;19.40;95.70;;;;;;10088058;29;20293;-88
2023/08/31 11:38:10;;;;;;;4.43;3.47;;;19.40;95.80;;;;;;10096386;29;20609;-88
2023/08/31 11:43:15;;;;;;;4.45;4.05;;;19.30;94.70;;;;;;10126364;29;20248;-88
2023/08/31 11:48:18;;;;;;;3.53;3.20;;;19.30;97.50;;;;;;10127672;29;20243;-88
2023/08/31 11:53:21;;;;;;;3.40;2.42;;;19.80;94.70;;;;;;10125420;29;20292;-88
2023/08/31 11:58:27;;;;;;;5.10;4.45;;;19.80;93.90;;;;;;10120742;29;20300;-88
2023/08/31 12:03:43;;;;;;;4.82;4.35;;;20.10;96.00;;;;;;10117630;29;20693;-89
2023/08/31 12:08:54;;;;;;;3.55;2.78;;;20.50;95.20;;;;;;10092495;29;20289;-89
2023/08/31 12:14:01;;;;;;;3.53;3.22;;;20.60;90.00;;;;;;10123201;29;20247;-89
2023/08/31 12:19:04;;;;;;;5.20;4.70;;;20.30;89.90;;;;;;10125360;29;20261;-89
2023/08/31 12:24:06;;;;;;;4.60;3.28;;;20.00;91.60;;;;;;10123782;29;20637;-88
2023/08/31 12:29:09;;;;;;;4.18;3.65;;;19.70;91.50;;;;;;10124512;29;20721;-88
2023/08/31 12:34:12;;;;;;;5.28;3.50;;;19.60;94.70;;;;;;10125572;29;20239;-88
2023/08/31 12:39:14;;;;;;;3.95;3.10;;;19.00;95.50;;;;;;10126083;29;20319;-88
2023/08/31 12:44:17;;;;;;;3.97;3.15;;;18.30;99.00;;;;;;10124046;29;20240;-89
2023/08/31 12:49:20;;;;;;;2.45;2.25;;;18.10;99.80;;;;;;10122050;29;20593;-89
2023/08/31 12:54:23;;;;;;;3.10;2.80;;;17.60;99.50;;;;;;10125365;29;20248;-89
2023/08/31 12:59:26;;;;;;;3.35;2.97;;;17.30;99.70;;;;;;10123460;29;20275;-89
2023/08/31 13:04:28;;;;;;;5.28;2.15;;;17.20;99.90;;;;;;10122497;29;20650;-89
2023/08/31 13:09:31;;;;;;;5.68;3.65;;;17.50;99.90;;;;;;10127391;29;20703;-89
2023/08/31 13:14:35;;;;;;;6.78;4.78;;;18.10;99.90;;;;;;10131828;29;20775;-89
2023/08/31 13:19:38;;;;;;;5.90;4.43;;;18.50;99.90;;;;;;10132111;29;20276;-89
2023/08/31 13:24:41;;;;;;;3.00;2.70;;;18.80;99.90;;;;;;10133845;29;20632;-88
2023/08/31 13:29:43;;;;;;;2.83;2.13;;;18.70;98.20;;;;;;10130979;29;20845;-88
2023/08/31 13:34:46;;;;;;;4.88;4.47;;;18.60;98.90;;;;;;10131975;29;20239;-88
2023/08/31 13:39:51;;;;;;;5.05;2.88;;;18.80;98.90;;;;;;10131066;29;20271;-88
2023/08/31 13:44:54;;;;;;;3.60;2.95;;;19.00;97.20;;;;;;10129783;29;20252;-88
2023/08/31 13:49:57;;;;;;;5.53;4.97;;;19.10;97.30;;;;;;10131815;29;20232;-88
2023/08/31 13:54:59;;;;;;;3.17;2.88;;;19.20;99.10;;;;;;10130988;29;20299;-88
2023/08/31 14:00:04;;;;;;;5.93;2.97;;;19.10;97.80;;;;;;10128674;29;20252;-88
2023/08/31 14:05:11;;;;;;;4.97;3.17;;;19.00;97.40;;;;;;10131390;29;20626;-88
2023/08/31 14:10:13;;;;;;;3.80;3.50;;;19.10;97.20;;;;;;10130972;29;20634;-89
2023/08/31 14:15:16;;;;;;;3.92;3.28;;;18.90;97.80;;;;;;10129267;29;20698;-89
2023/08/31 14:20:19;;;;;;;4.68;3.30;;;18.50;97.70;;;;;;10128558;29;20668;-88
2023/08/31 14:25:24;;;;;;;4.15;3.30;;;18.30;98.60;;;;;;10129934;29;20248;-88
2023/08/31 14:30:27;;;;;;;4.57;4.18;;;18.40;98.80;;;;;;10126043;29;20252;-88
2023/08/31 14:35:30;;;;;;;2.88;2.60;;;19.00;99.90;;;;;;10124690;29;20666;-88
2023/08/31 14:40:35;;;;;;;4.90;3.30;;;19.00;96.70;;;;;;10124661;29;20263;-88
2023/08/31 14:45:38;;;;;;;5.53;2.75;;;19.20;97.10;;;;;;10129276;29;20319;-88
2023/08/31 14:50:43;;;;;;;4.05;3.03;;;19.30;96.40;;;;;;10089942;29;20617;-87
2023/08/31 14:55:52;;;;;;;4.38;3.97;;;19.70;96.60;;;;;;10090368;29;20276;-88
2023/08/31 15:00:58;;;;;;;4.20;3.80;;;20.00;96.90;;;;;;10098368;29;20256;-89
2023/08/31 15:06:00;;;;;;;4.55;1.98;;;19.90;95.20;;;;;;10100691;29;20830;-88
2023/08/31 15:11:03;;;;;;;3.83;3.45;;;19.90;91.10;;;;;;10127728;29;20232;-89
2023/08/31 15:16:06;;;;;;;5.05;1.10;;;19.70;83.30;;;;;;10128170;29;20299;-88
2023/08/31 15:21:08;;;;;;;3.20;1.05;;;19.40;75.80;;;;;;10110820;29;20718;-89
2023/08/31 15:26:13;;;;;;;2.53;1.45;;;19.20;71.80;;;;;;10131918;29;20755;-90
2023/08/31 15:31:16;;;;;;;1.92;1.08;;;19.10;72.70;;;;;;10104790;29;20327;-89
2023/08/31 15:36:18;;;;;;;3.00;1.15;;;19.10;76.70;;;;;;10125814;29;20303;-87
2023/08/31 15:41:21;;;;;;;4.75;1.35;;;19.10;78.90;;;;;;10125265;29;20285;-87
2023/08/31 15:46:23;;;;;;;1.83;1.55;;;19.00;77.40;;;;;;9447752;29;10000608;-89
2023/08/31 15:51:28;;;;;;;3.75;1.80;;;19.20;81.10;;;;;;10123729;29;20244;-89
2023/08/31 15:56:32;;;;;;;2.42;1.90;;;19.00;83.70;;;;;;10125790;29;20735;-89
2023/08/31 16:01:36;;;;;;;3.40;1.58;;;19.00;82.90;;;;;;10124017;29;20256;-87
2023/08/31 16:06:39;;;;;;;3.15;1.70;;;18.90;85.20;;;;;;10118375;29;20240;-88
2023/08/31 16:11:41;;;;;;;2.25;2.05;;;19.00;87.40;;;;;;10123596;29;20224;-89
2023/08/31 16:16:44;;;;;;;2.17;1.73;;;19.00;89.30;;;;;;10124741;29;20251;-90
2023/08/31 16:21:47;;;;;;;5.88;1.70;;;19.00;86.70;;;;;;10123186;29;20267;-89
2023/08/31 16:26:49;;;;;;;1.77;1.42;;;18.80;88.40;;;;;;10124236;29;20764;-90
2023/08/31 16:31:52;;;;;;;3.75;2.45;;;18.70;90.20;;;;;;10125127;29;20296;-90
2023/08/31 16:36:55;;;;;;;5.35;2.20;;;18.70;91.80;;;;;;10123436;29;20251;-90
2023/08/31 16:41:58;;;;;;;1.40;1.30;;;18.50;89.10;;;;;;10126623;29;20264;-90
2023/08/31 16:47:00;;;;;;;2.03;1.65;;;18.40;88.90;;;;;;10141962;29;20235;-89
2023/08/31 16:52:03;;;;;;;1.80;1.00;;;18.40;87.20;;;;;;10171540;29;20760;-88
2023/08/31 16:57:06;;;;;;;2.42;1.00;;;18.30;82.70;;;;;;10140703;29;20271;-88
2023/08/31 17:02:09;;;;;;;2.70;1.65;;;19.00;81.30;;;;;;10133763;29;20319;-87
2023/08/31 17:07:11;;;;;;;2.13;1.67;;;18.70;76.30;;;;;;10134030;29;20232;-88
2023/08/31 17:12:16;;;;;;;1.88;1.67;;;18.30;79.00;;;;;;10129828;29;20239;-89
2023/08/31 17:17:19;;;;;;;2.78;2.00;;;18.00;81.40;;;;;;10126952;29;20236;-87
2023/08/31 17:22:24;;;;;;;3.70;1.83;;;17.50;87.50;;;;;;10108253;29;20288;-88
2023/08/31 17:27:28;;;;;;;5.50;2.90;;;17.30;90.40;;;;;;10118315;29;20647;-88
2023/08/31 17:32:31;;;;;;;5.63;3.20;;;17.00;91.70;;;;;;10122806;29;20647;-89
2023/08/31 17:37:34;;;;;;;5.20;2.42;;;16.60;93.80;;;;;;10150464;29;20284;-90
2023/08/31 17:42:37;;;;;;;3.78;2.65;;;16.20;96.30;;;;;;10156983;29;20292;-88
2023/08/31 17:47:40;;;;;;;2.33;1.83;;;15.80;99.10;;;;;;10132748;29;20291;-88
2023/08/31 17:52:42;;;;;;;5.53;2.58;;;15.60;99.90;;;;;;10128497;29;20268;-89
2023/08/31 17:57:45;;;;;;;3.75;2.67;;;15.60;99.90;;;;;;10127137;29;20331;-88
2023/08/31 18:02:51;;;;;;;6.97;3.47;;;15.40;99.90;;;;;;10127245;29;20255;-88
2023/08/31 18:07:55;;;;;;;9.13;3.85;;;15.00;99.90;;;;;;9790420;29;10000030;-88
2023/08/31 18:12:57;;;;;;;9.75;3.58;;;14.80;99.90;;;;;;10127286;29;20264;-88
2023/08/31 18:18:00;;;;;;;4.68;3.33;;;14.60;99.90;;;;;;10135975;29;20208;-89
2023/08/31 18:23:03;;;;;;;5.70;2.95;;;14.40;99.90;;;;;;10134715;29;20244;-89
2023/08/31 18:28:06;;;;;;;4.38;2.72;;;14.20;99.90;;;;;;10131455;29;20271;-89
2023/08/31 18:33:14;;;;;;;4.03;3.00;;;14.00;99.90;;;;;;10132479;29;20260;-89
2023/08/31 18:38:20;;;;;;;4.88;4.20;;;13.70;99.90;;;;;;10129891;29;20743;-89
2023/08/31 18:43:24;;;;;;;5.28;3.92;;;13.50;99.90;;;;;;10127331;29;20818;-88
2023/08/31 18:48:29;;;;;;;5.28;3.55;;;13.30;99.90;;;;;;10128263;29;20283;-89
2023/08/31 18:53:32;;;;;;;5.32;3.63;;;13.30;99.90;;;;;;10126868;29;20256;-89
2023/08/31 18:58:35;;;;;;;4.75;3.30;;;13.30;99.90;;;;;;10111297;29;20267;-89
2023/08/31 19:03:37;;;;;;;9.52;4.05;;;13.20;99.90;;;;;;10124670;29;20264;-90
2023/08/31 19:08:40;;;;;;;8.27;3.55;;;13.10;99.90;;;;;;10125497;29;20259;-90
2023/08/31 19:13:43;;;;;;;5.03;3.72;;;12.90;99.90;;;;;;10124725;29;20660;-90
2023/08/31 19:18:48;;;;;;;5.63;4.00;;;12.70;99.90;;;;;;10126086;29;20304;-89
2023/08/31 19:23:53;;;;;;;5.80;4.95;;;12.60;99.90;;;;;;10123290;29;20327;-89
2023/08/31 19:28:56;;;;;;;8.23;6.07;;;;;;;;;;10125602;29;20240;-90
2023/08/31 19:33:59;;;;;;;7.25;5.10;;;12.50;99.90;;;;;;10125240;29;20287;-89
2023/08/31 19:39:02;;;;;;;8.80;5.20;;;12.30;99.90;;;;;;10126004;29;20264;-89
2023/08/31 19:44:04;;;;;;;6.28;4.97;;;12.10;99.90;;;;;;10121158;29;20251;-89
2023/08/31 19:49:07;;;;;;;7.30;5.15;;;12.10;99.90;;;;;;10125023;29;20228;-89
2023/08/31 19:54:10;;;;;;;5.50;5.00;;;12.00;99.90;;;;;;10123755;29;20263;-90
2023/08/31 19:59:13;;;;;;;5.57;5.07;;;11.90;99.90;;;;;;10126533;29;20260;-90
2023/08/31 20:11:25;;;;;;;7.28;5.20;;;11.70;99.90;;;;;;10679501;27;20521;-89
2023/08/31 20:16:29;;;;;;;7.13;5.60;;;11.80;99.90;;;;;;10650081;27;20206;-89
2023/08/31 20:21:32;;;;;;;6.90;4.90;;;11.80;99.90;;;;;;10635281;27;20201;-86
2023/08/31 20:26:35;;;;;;;5.20;4.70;;;11.70;99.90;;;;;;10626793;27;20207;-90
2023/08/31 20:31:38;;;;;;;9.02;4.80;;;11.70;99.90;;;;;;10665705;27;20196;-88
2023/08/31 20:36:41;;;;;;;6.37;4.77;;;;;;;;;;10645822;27;20250;-89
2023/08/31 20:41:44;;;;;;;8.07;5.23;;;11.50;99.90;;;;;;10672745;27;20184;-88
2023/08/31 20:46:47;;;;;;;9.37;5.30;;;11.50;99.90;;;;;;10613016;27;20587;-89
2023/08/31 20:51:50;;;;;;;6.83;4.70;;;11.60;99.90;;;;;;10504450;28;20198;-91
2023/08/31 20:56:53;;;;;;;8.53;6.07;;;11.50;99.90;;;;;;10509293;28;20224;-91
2023/08/31 21:01:56;;;;;;;6.97;6.03;;;11.40;99.90;;;;;;10506126;28;20695;-89
2023/08/31 21:06:59;;;;;;;8.30;5.23;;;11.30;99.90;;;;;;10486665;28;20279;-91
2023/08/31 21:12:02;;;;;;;10.70;5.93;;;11.20;99.90;;;;;;10533873;28;20201;-90
2023/08/31 21:17:05;;;;;;;7.57;4.47;;;11.20;99.90;;;;;;10539682;28;20186;-90
2023/08/31 21:22:07;;;;;;;11.13;4.03;;;11.20;99.90;;;;;;10528368;28;20186;-88
2023/08/31 21:27:10;;;;;;;7.68;4.88;;;11.40;99.90;;;;;;10527378;28;20215;-90
2023/08/31 21:32:13;;;;;;;8.70;4.90;;;11.50;99.90;;;;;;10546345;28;20182;-89
2023/08/31 21:37:15;;;;;;;11.00;6.63;;;11.40;99.90;;;;;;10554317;28;20236;-90
2023/08/31 21:42:18;;;;;;;11.13;5.37;;;11.50;99.90;;;;;;10515391;28;20218;-90
2023/08/31 21:47:20;;;;;;;4.70;3.57;;;11.40;99.90;;;;;;10506165;28;20218;-89
2023/08/31 21:52:23;;;;;;;6.37;3.20;;;11.40;99.90;;;;;;10511516;28;20198;-90
2023/08/31 21:57:25;;;;;;;4.80;3.73;;;11.40;99.90;;;;;;10500124;28;20237;-90
2023/08/31 22:02:28;;;;;;;5.63;3.37;;;11.40;99.90;;;;;;10490578;28;20183;-89
2023/08/31 22:07:31;;;;;;;8.53;4.70;;;11.40;99.90;;;;;;10484648;28;20234;-90
2023/08/31 22:12:34;;;;;;;14.40;5.93;;;11.50;99.90;;;;;;10508999;28;20213;-89
2023/08/31 22:17:37;;;;;;;8.77;4.28;;;11.70;99.90;;;;;;10510080;28;20187;-90
2023/08/31 22:22:41;;;;;;;7.60;4.68;;;11.80;99.90;;;;;;10493515;28;20236;-90
2023/08/31 22:27:43;;;;;;;5.63;3.90;;;12.00;99.90;;;;;;10510775;28;20187;-90
2023/08/31 22:32:46;;;;;;;5.80;3.47;;;12.20;99.90;;;;;;10520377;28;20195;-90
2023/08/31 22:37:49;;;;;;;11.82;5.78;;;12.30;99.90;;;;;;10551329;28;20209;-90
2023/08/31 22:42:51;;;;;;;7.85;4.63;;;12.30;99.90;;;;;;10551320;28;20178;-90
2023/08/31 22:47:54;;;;;;;5.72;3.40;;;12.20;99.90;;;;;;10538700;28;20195;-90
2023/08/31 22:52:57;;;;;;;4.00;2.92;;;12.30;99.90;;;;;;10509421;28;20187;-90
2023/08/31 22:57:59;;;;;;;3.83;2.75;;;12.40;99.90;;;;;;10508719;28;20183;-90
2023/08/31 23:03:02;;;;;;;2.63;2.42;;;12.40;99.90;;;;;;10508072;28;20163;-90
2023/08/31 23:08:05;;;;;;;2.42;2.22;;;12.50;99.90;;;;;;10508090;28;20218;-90
2023/08/31 23:13:07;;;;;;;4.20;2.33;;;12.60;99.90;;;;;;10508132;28;20191;-90
2023/08/31 23:18:10;;;;;;;4.57;2.88;;;12.80;99.90;;;;;;10521585;28;20194;-90
2023/08/31 23:23:13;;;;;;;3.30;2.42;;;12.80;99.90;;;;;;10549361;28;20220;-90
2023/08/31 23:28:15;;;;;;;5.70;4.07;;;12.90;99.90;;;;;;10513043;28;20195;-90
2023/08/31 23:33:18;;;;;;;3.05;2.40;;;12.90;99.90;;;;;;10553404;28;20212;-90
2023/08/31 23:38:21;;;;;;;4.13;3.13;;;13.00;99.90;;;;;;10529143;28;20198;-90
2023/08/31 23:43:24;;;;;;;2.72;2.35;;;13.30;99.90;;;;;;10498397;28;20197;-90
2023/08/31 23:48:27;;;;;;;2.75;2.10;;;13.20;99.90;;;;;;10479539;28;20219;-89
2023/08/31 23:53:30;;;;;;;2.78;2.17;;;13.20;99.90;;;;;;10455132;28;20203;-90
2023/08/31 23:58:33;;;;;;;4.97;2.10;;;13.20;99.90;;;;;;10456803;28;20199;-90
